createdAt,value
2018-01-03T00:09:26.000Z,17.3
2018-01-03T00:19:24.000Z,17.1
2018-01-03T00:29:24.000Z,17.1
2018-01-03T00:39:24.000Z,17.2
2018-01-03T00:49:24.000Z,17.1
2018-01-03T00:59:27.000Z,17
2018-01-03T01:09:24.000Z,17
2018-01-03T01:19:24.000Z,17.1
2018-01-03T01:29:24.000Z,17.1
2018-01-03T01:39:25.000Z,17
2018-01-03T01:49:24.000Z,17.2
2018-01-03T01:59:24.000Z,17.2
2018-01-03T02:09:24.000Z,17.2
2018-01-03T02:19:24.000Z,17.2
2018-01-03T02:29:24.000Z,17.1
2018-01-03T02:39:25.000Z,17.1
2018-01-03T02:49:24.000Z,17.2
2018-01-03T02:59:24.000Z,17.1
2018-01-03T03:09:24.000Z,17.1
2018-01-03T03:19:24.000Z,17.2
2018-01-03T03:29:25.000Z,17.1
2018-01-03T03:39:24.000Z,17.2
2018-01-03T03:49:24.000Z,17.1
2018-01-03T03:59:24.000Z,17.2
2018-01-03T04:09:24.000Z,17
2018-01-03T04:19:25.000Z,17
2018-01-03T04:29:24.000Z,17
2018-01-03T04:39:24.000Z,17.1
2018-01-03T04:49:25.000Z,17.1
2018-01-03T04:59:25.000Z,17.2
2018-01-03T05:09:25.000Z,17.3
2018-01-03T05:19:25.000Z,17.4
2018-01-03T05:29:25.000Z,17.4
2018-01-03T05:39:25.000Z,17.4
2018-01-03T05:49:25.000Z,17.4
2018-01-03T05:59:25.000Z,17.5
2018-01-03T06:09:25.000Z,17.4
2018-01-03T06:19:25.000Z,17.2
2018-01-03T06:29:25.000Z,17.3
2018-01-03T06:39:25.000Z,17.3
2018-01-03T06:49:26.000Z,17.3
2018-01-03T06:59:25.000Z,17.2
2018-01-03T07:09:25.000Z,17.1
2018-01-03T07:19:25.000Z,17.1
2018-01-03T07:29:25.000Z,17.1
2018-01-03T07:39:25.000Z,17
2018-01-03T07:49:25.000Z,17
2018-01-03T07:59:25.000Z,17.1
2018-01-03T08:09:25.000Z,17
2018-01-03T08:19:25.000Z,17
2018-01-03T08:29:25.000Z,16.8
2018-01-03T08:39:25.000Z,16.8
2018-01-03T08:59:25.000Z,16.8
2018-01-03T09:09:25.000Z,16.7
2018-01-03T09:19:25.000Z,16.7
2018-01-03T09:29:25.000Z,16.8
2018-01-03T09:39:25.000Z,17.1
2018-01-03T09:49:28.000Z,18
2018-01-03T09:59:26.000Z,18.4
2018-01-03T10:09:25.000Z,18.7
2018-01-03T10:19:27.000Z,18.8
2018-01-03T10:29:25.000Z,18.9
2018-01-03T10:39:25.000Z,19.1
2018-01-03T10:49:25.000Z,19.1
2018-01-03T10:59:25.000Z,19.1
2018-01-03T11:09:25.000Z,19.3
2018-01-03T11:19:26.000Z,19.2
2018-01-03T11:29:25.000Z,19.2
2018-01-03T11:39:25.000Z,19.2
2018-01-03T11:49:28.000Z,19.2
2018-01-03T11:59:27.000Z,19.3
2018-01-03T12:09:26.000Z,19.3
2018-01-03T12:19:27.000Z,19.3
2018-01-03T12:29:28.000Z,19.5
2018-01-03T12:39:26.000Z,19.3
2018-01-03T12:49:26.000Z,19.4
2018-01-03T12:59:26.000Z,19.4
2018-01-03T13:09:26.000Z,19.4
2018-01-03T13:19:26.000Z,19.5
2018-01-03T13:29:27.000Z,19.6
2018-01-03T13:39:26.000Z,19.5
2018-01-03T13:49:26.000Z,19.6
2018-01-03T13:59:26.000Z,19.5
2018-01-03T14:09:26.000Z,19.4
2018-01-03T14:19:26.000Z,19.4
2018-01-03T14:29:26.000Z,19.5
2018-01-03T14:39:26.000Z,19.6
2018-01-03T14:49:27.000Z,19.5
2018-01-03T14:59:26.000Z,19.6
2018-01-03T15:09:26.000Z,19.5
2018-01-03T15:19:26.000Z,19.7
2018-01-03T15:29:26.000Z,19.7
2018-01-03T15:39:26.000Z,19.7
2018-01-03T15:49:26.000Z,19.8
2018-01-03T15:59:26.000Z,19.8
2018-01-03T16:09:26.000Z,19.8
2018-01-03T16:19:26.000Z,19.8
2018-01-03T16:29:26.000Z,19.8
2018-01-03T16:39:27.000Z,19.8
2018-01-03T16:49:26.000Z,19.8
2018-01-03T16:59:26.000Z,19.8
2018-01-03T17:09:26.000Z,19.8
2018-01-03T17:19:26.000Z,19.9
2018-01-03T17:29:26.000Z,19.9
2018-01-03T17:39:26.000Z,19.9
2018-01-03T17:49:26.000Z,20.1
2018-01-03T17:59:26.000Z,20
2018-01-03T18:09:26.000Z,19.8
2018-01-03T18:19:26.000Z,20.1
2018-01-03T18:29:27.000Z,20.2
2018-01-03T18:39:26.000Z,20
2018-01-03T18:49:27.000Z,20.1
2018-01-03T18:59:28.000Z,20
2018-01-03T19:09:27.000Z,19.9
2018-01-03T19:19:28.000Z,20
2018-01-03T19:29:27.000Z,19.9
2018-01-03T19:39:27.000Z,19.9
2018-01-03T19:49:27.000Z,19.9
2018-01-03T19:59:27.000Z,19.9
2018-01-03T20:09:27.000Z,19.9
2018-01-03T20:19:29.000Z,19.9
2018-01-03T20:29:27.000Z,19.9
2018-01-03T20:39:27.000Z,19.9
2018-01-03T20:49:27.000Z,19.8
2018-01-03T20:59:27.000Z,19.9
2018-01-03T21:09:27.000Z,20
2018-01-03T21:19:27.000Z,19.9
2018-01-03T21:29:27.000Z,19.9
2018-01-03T21:39:28.000Z,19.9
2018-01-03T21:59:28.000Z,19.9
2018-01-03T22:09:27.000Z,19.9
2018-01-03T22:19:27.000Z,19.9
2018-01-03T22:29:27.000Z,19.9
2018-01-03T22:39:29.000Z,19.8
2018-01-03T22:49:27.000Z,19.9
2018-01-03T22:59:27.000Z,19.9
2018-01-03T23:09:27.000Z,19.9
2018-01-03T23:19:27.000Z,19.9
2018-01-03T23:29:27.000Z,19.9
2018-01-03T23:39:27.000Z,20
2018-01-03T23:49:27.000Z,19.9
2018-01-03T23:59:27.000Z,19.9
